sensor_id;sensor_type;location;lat;lon;timestamp;pressure;altitude;pressure_sealevel;temperature;humidity
70921;BME280;58572;48.110;19.838;2023-05-10T00:02:24;98038.13;;;9.42;58.83
70921;BME280;58572;48.110;19.838;2023-05-10T00:04:52;98025.06;;;9.29;59.31
70921;BME280;58572;48.110;19.838;2023-05-10T00:07:19;98040.81;;;9.68;57.45
70921;BME280;58572;48.110;19.838;2023-05-10T00:09:46;98031.03;;;9.11;60.87
70921;BME280;58572;48.110;19.838;2023-05-10T00:12:13;98032.13;;;9.20;59.89
70921;BME280;58572;48.110;19.838;2023-05-10T00:14:40;98031.97;;;8.39;64.91
70921;BME280;58572;48.110;19.838;2023-05-10T00:17:07;98028.31;;;9.01;59.69
70921;BME280;58572;48.110;19.838;2023-05-10T00:19:36;98023.94;;;8.74;61.38
70921;BME280;58572;48.110;19.838;2023-05-10T00:22:03;98028.78;;;8.57;62.58
70921;BME280;58572;48.110;19.838;2023-05-10T00:24:30;98023.97;;;8.84;60.56
70921;BME280;58572;48.110;19.838;2023-05-10T00:26:57;98019.09;;;8.91;60.57
70921;BME280;58572;48.110;19.838;2023-05-10T00:29:26;98020.72;;;8.92;62.05
70921;BME280;58572;48.110;19.838;2023-05-10T00:31:53;98017.97;;;8.77;61.70
70921;BME280;58572;48.110;19.838;2023-05-10T00:34:20;98013.13;;;9.35;58.33
70921;BME280;58572;48.110;19.838;2023-05-10T00:36:49;98016.38;;;8.86;61.11
70921;BME280;58572;48.110;19.838;2023-05-10T00:39:16;98024.69;;;8.54;63.01
70921;BME280;58572;48.110;19.838;2023-05-10T00:41:43;98027.91;;;8.36;63.30
70921;BME280;58572;48.110;19.838;2023-05-10T00:44:10;98019.63;;;9.04;59.44
70921;BME280;58572;48.110;19.838;2023-05-10T00:46:38;98035.13;;;8.30;64.07
70921;BME280;58572;48.110;19.838;2023-05-10T00:49:05;98016.28;;;8.51;63.06
70921;BME280;58572;48.110;19.838;2023-05-10T00:51:32;98018.53;;;8.84;63.19
70921;BME280;58572;48.110;19.838;2023-05-10T00:54:02;98020.69;;;8.82;60.93
70921;BME280;58572;48.110;19.838;2023-05-10T00:56:29;98016.53;;;8.39;66.32
70921;BME280;58572;48.110;19.838;2023-05-10T00:58:56;98020.69;;;8.82;61.64
70921;BME280;58572;48.110;19.838;2023-05-10T01:01:24;97884.56;;;7.47;65.07
70921;BME280;58572;48.110;19.838;2023-05-10T01:03:51;98027.69;;;8.53;63.83
70921;BME280;58572;48.110;19.838;2023-05-10T01:06:18;98012.88;;;9.26;59.45
70921;BME280;58572;48.110;19.838;2023-05-10T01:08:46;98017.41;;;8.65;61.52
70921;BME280;58572;48.110;19.838;2023-05-10T01:11:15;98007.97;;;8.88;61.27
70921;BME280;58572;48.110;19.838;2023-05-10T01:13:43;98014.03;;;8.32;64.88
70921;BME280;58572;48.110;19.838;2023-05-10T01:16:14;98014.72;;;8.75;60.97
70921;BME280;58572;48.110;19.838;2023-05-10T01:18:41;97985.13;;;8.43;63.72
70921;BME280;58572;48.110;19.838;2023-05-10T01:21:18;98019.56;;;8.53;63.83
70921;BME280;58572;48.110;19.838;2023-05-10T01:24:09;98014.72;;;8.75;61.54
70921;BME280;58572;48.110;19.838;2023-05-10T01:30:08;98019.03;;;8.66;65.54
70921;BME280;58572;48.110;19.838;2023-05-10T01:32:47;98006.09;;;9.04;59.63
70921;BME280;58572;48.110;19.838;2023-05-10T01:35:25;98014.75;;;8.85;61.34
70921;BME280;58572;48.110;19.838;2023-05-10T01:37:59;98017.72;;;8.74;63.91
70921;BME280;58572;48.110;19.838;2023-05-10T01:40:30;98022.59;;;8.77;64.22
70921;BME280;58572;48.110;19.838;2023-05-10T01:43:02;98023.88;;;7.96;68.53
70921;BME280;58572;48.110;19.838;2023-05-10T01:45:33;98029.88;;;8.61;63.25
70921;BME280;58572;48.110;19.838;2023-05-10T01:48:05;98018.03;;;8.20;65.86
70921;BME280;58572;48.110;19.838;2023-05-10T01:50:34;98031.72;;;7.98;67.43
70921;BME280;58572;48.110;19.838;2023-05-10T01:53:06;97996.94;;;7.69;67.52
70921;BME280;58572;48.110;19.838;2023-05-10T01:55:39;98020.78;;;7.78;67.75
70921;BME280;58572;48.110;19.838;2023-05-10T01:58:10;98023.13;;;7.59;68.80
70921;BME280;58572;48.110;19.838;2023-05-10T02:00:42;98021.19;;;7.54;68.70
70921;BME280;58572;48.110;19.838;2023-05-10T02:03:12;98014.69;;;7.50;69.65
70921;BME280;58572;48.110;19.838;2023-05-10T02:05:41;98012.03;;;7.60;68.99
70921;BME280;58572;48.110;19.838;2023-05-10T02:08:11;98009.78;;;7.47;69.38
70921;BME280;58572;48.110;19.838;2023-05-10T02:10:41;98009.84;;;7.57;68.53
70921;BME280;58572;48.110;19.838;2023-05-10T02:13:10;98010.59;;;7.48;67.96
70921;BME280;58572;48.110;19.838;2023-05-10T02:15:38;98002.31;;;7.64;67.74
70921;BME280;58572;48.110;19.838;2023-05-10T02:18:08;98011.47;;;7.58;68.08
70921;BME280;58572;48.110;19.838;2023-05-10T02:20:38;98006.28;;;7.52;68.44
70921;BME280;58572;48.110;19.838;2023-05-10T02:23:07;98000.53;;;7.38;69.19
70921;BME280;58572;48.110;19.838;2023-05-10T02:25:36;98002.81;;;7.56;68.08
70921;BME280;58572;48.110;19.838;2023-05-10T02:28:05;97999.84;;;7.58;70.10
70921;BME280;58572;48.110;19.838;2023-05-10T02:30:34;97995.00;;;7.65;69.98
70921;BME280;58572;48.110;19.838;2023-05-10T02:33:04;97998.34;;;7.77;69.80
70921;BME280;58572;48.110;19.838;2023-05-10T02:35:32;98001.53;;;7.69;69.99
70921;BME280;58572;48.110;19.838;2023-05-10T02:38:02;98001.25;;;7.65;69.99
70921;BME280;58572;48.110;19.838;2023-05-10T02:40:32;97993.13;;;7.65;69.76
70921;BME280;58572;48.110;19.838;2023-05-10T02:43:01;97995.38;;;7.84;70.26
70921;BME280;58572;48.110;19.838;2023-05-10T02:45:31;97999.09;;;7.67;68.86
70921;BME280;58572;48.110;19.838;2023-05-10T02:47:59;98001.19;;;7.55;71.16
70921;BME280;58572;48.110;19.838;2023-05-10T02:50:28;98001.75;;;7.62;69.51
70921;BME280;58572;48.110;19.838;2023-05-10T02:53:03;97995.84;;;7.65;68.24
70921;BME280;58572;48.110;19.838;2023-05-10T02:55:36;97930.19;;;7.33;68.86
70921;BME280;58572;48.110;19.838;2023-05-10T02:58:04;98000.78;;;7.79;68.57
70921;BME280;58572;48.110;19.838;2023-05-10T03:00:31;97915.88;;;7.00;69.42
70921;BME280;58572;48.110;19.838;2023-05-10T03:02:59;98000.19;;;7.72;69.51
70921;BME280;58572;48.110;19.838;2023-05-10T03:05:26;97841.97;;;6.80;68.87
70921;BME280;58572;48.110;19.838;2023-05-10T03:07:54;98003.53;;;7.89;68.44
70921;BME280;58572;48.110;19.838;2023-05-10T03:10:22;98000.56;;;8.43;64.83
70921;BME280;58572;48.110;19.838;2023-05-10T03:13:00;98009.75;;;8.42;69.07
70921;BME280;58572;48.110;19.838;2023-05-10T03:15:37;97996.13;;;8.26;67.62
70921;BME280;58572;48.110;19.838;2023-05-10T03:18:09;98003.28;;;8.48;68.35
70921;BME280;58572;48.110;19.838;2023-05-10T03:20:41;98006.56;;;8.55;69.26
70921;BME280;58572;48.110;19.838;2023-05-10T03:23:13;98007.94;;;8.68;65.71
70921;BME280;58572;48.110;19.838;2023-05-10T03:25:42;98005.25;;;8.93;64.94
70921;BME280;58572;48.110;19.838;2023-05-10T03:28:11;98003.66;;;9.27;62.86
70921;BME280;58572;48.110;19.838;2023-05-10T03:30:39;98007.16;;;9.18;67.74
70921;BME280;58572;48.110;19.838;2023-05-10T03:33:07;98002.00;;;9.32;60.37
70921;BME280;58572;48.110;19.838;2023-05-10T03:35:35;97942.38;;;9.01;61.40
70921;BME280;58572;48.110;19.838;2023-05-10T03:38:02;97906.84;;;8.57;61.58
70921;BME280;58572;48.110;19.838;2023-05-10T03:40:29;97906.56;;;8.69;65.72
70921;BME280;58572;48.110;19.838;2023-05-10T03:42:59;98005.81;;;9.61;59.87
70921;BME280;58572;48.110;19.838;2023-05-10T03:45:26;98001.44;;;9.80;59.28
70921;BME280;58572;48.110;19.838;2023-05-10T03:47:53;97965.66;;;9.53;59.41
70921;BME280;58572;48.110;19.838;2023-05-10T03:50:21;97934.94;;;9.73;58.59
70921;BME280;58572;48.110;19.838;2023-05-10T03:52:48;97897.91;;;8.97;61.30
70921;BME280;58572;48.110;19.838;2023-05-10T03:55:15;97986.44;;;9.93;60.45
70921;BME280;58572;48.110;19.838;2023-05-10T03:57:43;98002.28;;;9.66;65.33
70921;BME280;58572;48.110;19.838;2023-05-10T04:00:12;98013.44;;;9.39;64.04
70921;BME280;58572;48.110;19.838;2023-05-10T04:02:40;98004.44;;;9.33;61.87
70921;BME280;58572;48.110;19.838;2023-05-10T04:05:07;98000.09;;;8.86;67.19
70921;BME280;58572;48.110;19.838;2023-05-10T04:07:35;98005.25;;;9.69;60.52
70921;BME280;58572;48.110;19.838;2023-05-10T04:10:03;97997.25;;;10.13;58.46
70921;BME280;58572;48.110;19.838;2023-05-10T04:12:30;97982.66;;;9.94;62.00
70921;BME280;58572;48.110;19.838;2023-05-10T04:14:57;98013.66;;;9.73;61.85
70921;BME280;58572;48.110;19.838;2023-05-10T04:17:26;97984.94;;;9.51;64.09
70921;BME280;58572;48.110;19.838;2023-05-10T04:19:53;98020.75;;;9.48;61.39
70921;BME280;58572;48.110;19.838;2023-05-10T04:22:20;98025.91;;;9.60;61.22
70921;BME280;58572;48.110;19.838;2023-05-10T04:24:48;98023.44;;;9.74;65.43
70921;BME280;58572;48.110;19.838;2023-05-10T04:27:15;98017.19;;;9.78;60.64
70921;BME280;58572;48.110;19.838;2023-05-10T04:29:42;98022.25;;;10.05;60.19
70921;BME280;58572;48.110;19.838;2023-05-10T04:32:09;98012.34;;;10.55;58.17
70921;BME280;58572;48.110;19.838;2023-05-10T04:34:38;98024.78;;;9.81;64.81
70921;BME280;58572;48.110;19.838;2023-05-10T04:37:05;98022.13;;;10.51;59.19
70921;BME280;58572;48.110;19.838;2023-05-10T04:39:33;98016.47;;;10.42;58.22
70921;BME280;58572;48.110;19.838;2023-05-10T04:42:00;98020.59;;;10.24;60.13
70921;BME280;58572;48.110;19.838;2023-05-10T04:44:28;98017.03;;;10.88;57.12
70921;BME280;58572;48.110;19.838;2023-05-10T04:46:55;98019.28;;;11.15;56.36
70921;BME280;58572;48.110;19.838;2023-05-10T04:49:22;98020.88;;;10.82;58.16
70921;BME280;58572;48.110;19.838;2023-05-10T04:51:50;98010.16;;;10.57;57.46
70921;BME280;58572;48.110;19.838;2023-05-10T04:54:18;98016.16;;;10.49;57.95
70921;BME280;58572;48.110;19.838;2023-05-10T04:56:45;98022.78;;;10.82;56.92
70921;BME280;58572;48.110;19.838;2023-05-10T04:59:12;98023.41;;;11.08;55.64
70921;BME280;58572;48.110;19.838;2023-05-10T05:01:39;98056.56;;;11.15;55.86
70921;BME280;58572;48.110;19.838;2023-05-10T05:04:06;98027.78;;;10.65;56.25
70921;BME280;58572;48.110;19.838;2023-05-10T05:06:33;98029.00;;;10.87;56.20
70921;BME280;58572;48.110;19.838;2023-05-10T05:09:02;98030.66;;;10.83;57.38
70921;BME280;58572;48.110;19.838;2023-05-10T05:11:29;98026.03;;;11.23;56.00
70921;BME280;58572;48.110;19.838;2023-05-10T05:13:57;98024.72;;;11.15;55.59
70921;BME280;58572;48.110;19.838;2023-05-10T05:16:25;98027.00;;;10.59;60.62
70921;BME280;58572;48.110;19.838;2023-05-10T05:18:52;98031.88;;;10.62;57.60
70921;BME280;58572;48.110;19.838;2023-05-10T05:21:22;98032.09;;;10.71;57.24
70921;BME280;58572;48.110;19.838;2023-05-10T05:23:50;98026.94;;;10.69;56.71
70921;BME280;58572;48.110;19.838;2023-05-10T05:26:19;98025.75;;;10.85;56.52
70921;BME280;58572;48.110;19.838;2023-05-10T05:28:46;97985.19;;;9.35;62.61
70921;BME280;58572;48.110;19.838;2023-05-10T05:31:14;98030.41;;;10.20;59.49
70921;BME280;58572;48.110;19.838;2023-05-10T05:33:43;98041.16;;;10.51;58.97
70921;BME280;58572;48.110;19.838;2023-05-10T05:36:10;98041.75;;;10.38;60.20
70921;BME280;58572;48.110;19.838;2023-05-10T05:38:38;98035.03;;;10.79;57.56
70921;BME280;58572;48.110;19.838;2023-05-10T05:41:05;98040.72;;;10.23;60.52
70921;BME280;58572;48.110;19.838;2023-05-10T05:43:35;98042.06;;;10.26;60.39
70921;BME280;58572;48.110;19.838;2023-05-10T05:46:02;98051.13;;;9.71;63.24
70921;BME280;58572;48.110;19.838;2023-05-10T05:48:29;97776.00;;;8.41;61.02
70921;BME280;58572;48.110;19.838;2023-05-10T05:50:58;98036.94;;;9.99;61.64
70921;BME280;58572;48.110;19.838;2023-05-10T05:53:25;98054.91;;;9.85;65.70
70921;BME280;58572;48.110;19.838;2023-05-10T05:55:52;98040.53;;;9.69;66.99
70921;BME280;58572;48.110;19.838;2023-05-10T05:58:21;98051.66;;;9.83;69.89
70921;BME280;58572;48.110;19.838;2023-05-10T06:00:49;98054.09;;;9.74;64.67
70921;BME280;58572;48.110;19.838;2023-05-10T06:03:17;98058.94;;;9.98;63.54
70921;BME280;58572;48.110;19.838;2023-05-10T06:05:44;98053.31;;;9.53;68.03
70921;BME280;58572;48.110;19.838;2023-05-10T06:08:11;98055.97;;;9.08;72.64
70921;BME280;58572;48.110;19.838;2023-05-10T06:10:38;98062.13;;;8.68;76.75
70921;BME280;58572;48.110;19.838;2023-05-10T06:13:06;98068.34;;;8.63;77.60
70921;BME280;58572;48.110;19.838;2023-05-10T06:15:33;98050.59;;;9.69;69.08
70921;BME280;58572;48.110;19.838;2023-05-10T06:18:02;98022.09;;;9.25;69.02
70921;BME280;58572;48.110;19.838;2023-05-10T06:20:29;98016.41;;;9.17;70.13
70921;BME280;58572;48.110;19.838;2023-05-10T06:22:57;98050.06;;;9.41;73.61
70921;BME280;58572;48.110;19.838;2023-05-10T06:25:25;98046.00;;;9.49;71.60
70921;BME280;58572;48.110;19.838;2023-05-10T06:27:52;98049.22;;;9.71;70.96
70921;BME280;58572;48.110;19.838;2023-05-10T06:30:23;98040.75;;;10.03;67.92
70921;BME280;58572;48.110;19.838;2023-05-10T06:32:53;98046.25;;;9.52;70.64
70921;BME280;58572;48.110;19.838;2023-05-10T06:35:22;98048.69;;;9.23;79.32
70921;BME280;58572;48.110;19.838;2023-05-10T06:37:50;97941.75;;;8.33;78.64
70921;BME280;58572;48.110;19.838;2023-05-10T06:40:18;98048.38;;;9.96;70.91
70921;BME280;58572;48.110;19.838;2023-05-10T06:42:45;98052.72;;;9.87;77.08
70921;BME280;58572;48.110;19.838;2023-05-10T06:45:13;98050.94;;;10.52;72.63
70921;BME280;58572;48.110;19.838;2023-05-10T06:47:41;98015.03;;;9.70;73.68
70921;BME280;58572;48.110;19.838;2023-05-10T06:50:09;98051.69;;;10.68;68.30
70921;BME280;58572;48.110;19.838;2023-05-10T06:52:38;98042.91;;;11.20;67.71
70921;BME280;58572;48.110;19.838;2023-05-10T06:55:06;98053.81;;;11.88;62.96
70921;BME280;58572;48.110;19.838;2023-05-10T06:57:35;98049.84;;;12.04;62.50
70921;BME280;58572;48.110;19.838;2023-05-10T07:00:06;98047.44;;;11.35;71.50
70921;BME280;58572;48.110;19.838;2023-05-10T07:02:35;98051.97;;;11.49;66.38
70921;BME280;58572;48.110;19.838;2023-05-10T07:05:02;98053.16;;;12.25;63.13
70921;BME280;58572;48.110;19.838;2023-05-10T07:07:30;98051.41;;;11.52;68.00
70921;BME280;58572;48.110;19.838;2023-05-10T07:09:58;98049.66;;;11.67;65.32
70921;BME280;58572;48.110;19.838;2023-05-10T07:12:25;97992.31;;;11.19;65.01
70921;BME280;58572;48.110;19.838;2023-05-10T07:14:53;98049.59;;;11.72;63.90
70921;BME280;58572;48.110;19.838;2023-05-10T07:17:20;98050.03;;;12.37;62.22
70921;BME280;58572;48.110;19.838;2023-05-10T07:19:47;97915.91;;;10.81;68.01
70921;BME280;58572;48.110;19.838;2023-05-10T07:22:14;98052.75;;;10.72;74.27
70921;BME280;58572;48.110;19.838;2023-05-10T07:24:41;98062.88;;;10.61;68.16
70921;BME280;58572;48.110;19.838;2023-05-10T07:27:10;98052.59;;;11.36;65.05
70921;BME280;58572;48.110;19.838;2023-05-10T07:29:38;98050.38;;;12.06;66.67
70921;BME280;58572;48.110;19.838;2023-05-10T07:32:06;98065.25;;;11.90;66.61
70921;BME280;58572;48.110;19.838;2023-05-10T07:34:33;98064.41;;;11.61;69.68
70921;BME280;58572;48.110;19.838;2023-05-10T07:37:00;98061.72;;;11.90;65.13
70921;BME280;58572;48.110;19.838;2023-05-10T07:39:27;98061.16;;;11.59;72.17
70921;BME280;58572;48.110;19.838;2023-05-10T07:41:55;98007.97;;;11.66;64.77
70921;BME280;58572;48.110;19.838;2023-05-10T07:44:24;98060.34;;;12.64;66.38
70921;BME280;58572;48.110;19.838;2023-05-10T07:46:51;98026.88;;;12.10;66.73
70921;BME280;58572;48.110;19.838;2023-05-10T07:49:18;98051.41;;;13.01;65.11
70921;BME280;58572;48.110;19.838;2023-05-10T07:51:46;98044.38;;;12.95;61.11
70921;BME280;58572;48.110;19.838;2023-05-10T07:54:14;98050.59;;;13.19;59.78
70921;BME280;58572;48.110;19.838;2023-05-10T07:56:41;98040.59;;;13.47;58.32
70921;BME280;58572;48.110;19.838;2023-05-10T07:59:14;98045.25;;;13.47;59.00
70921;BME280;58572;48.110;19.838;2023-05-10T08:01:43;98041.34;;;13.85;58.21
70921;BME280;58572;48.110;19.838;2023-05-10T08:04:10;97986.34;;;13.59;56.06
70921;BME280;58572;48.110;19.838;2023-05-10T08:06:38;98034.81;;;14.14;58.67
70921;BME280;58572;48.110;19.838;2023-05-10T08:09:05;98040.59;;;14.53;55.94
70921;BME280;58572;48.110;19.838;2023-05-10T08:11:32;98036.94;;;14.85;54.52
70921;BME280;58572;48.110;19.838;2023-05-10T08:14:00;98036.47;;;15.42;54.26
70921;BME280;58572;48.110;19.838;2023-05-10T08:16:27;98038.25;;;14.88;54.54
70921;BME280;58572;48.110;19.838;2023-05-10T08:18:57;98038.81;;;15.34;53.62
70921;BME280;58572;48.110;19.838;2023-05-10T08:21:24;98031.75;;;15.78;54.05
70921;BME280;58572;48.110;19.838;2023-05-10T08:23:52;98032.75;;;16.13;58.35
70921;BME280;58572;48.110;19.838;2023-05-10T08:26:19;98035.09;;;15.98;54.94
70921;BME280;58572;48.110;19.838;2023-05-10T08:28:47;98035.59;;;15.32;53.48
70921;BME280;58572;48.110;19.838;2023-05-10T08:31:14;98016.19;;;14.71;54.29
70921;BME280;58572;48.110;19.838;2023-05-10T08:33:41;98033.72;;;16.17;54.22
70921;BME280;58572;48.110;19.838;2023-05-10T08:36:10;98027.69;;;16.86;52.22
70921;BME280;58572;48.110;19.838;2023-05-10T08:38:39;98037.06;;;16.85;54.24
70921;BME280;58572;48.110;19.838;2023-05-10T08:41:07;98038.84;;;16.81;51.10
70921;BME280;58572;48.110;19.838;2023-05-10T08:43:34;98040.47;;;15.80;51.33
70921;BME280;58572;48.110;19.838;2023-05-10T08:46:05;98027.31;;;15.46;53.23
70921;BME280;58572;48.110;19.838;2023-05-10T08:48:34;98027.88;;;17.07;54.29
70921;BME280;58572;48.110;19.838;2023-05-10T08:51:02;98040.94;;;16.05;50.51
70921;BME280;58572;48.110;19.838;2023-05-10T08:53:33;98039.94;;;16.32;53.37
70921;BME280;58572;48.110;19.838;2023-05-10T08:56:03;98044.72;;;14.92;55.12
70921;BME280;58572;48.110;19.838;2023-05-10T08:58:31;98040.84;;;14.57;56.27
70921;BME280;58572;48.110;19.838;2023-05-10T09:00:58;98044.97;;;14.54;56.12
70921;BME280;58572;48.110;19.838;2023-05-10T09:03:26;98036.09;;;15.57;54.28
70921;BME280;58572;48.110;19.838;2023-05-10T09:05:53;98035.75;;;16.03;53.49
70921;BME280;58572;48.110;19.838;2023-05-10T09:08:23;98038.09;;;16.18;54.13
70921;BME280;58572;48.110;19.838;2023-05-10T09:10:53;98040.53;;;16.20;52.21
70921;BME280;58572;48.110;19.838;2023-05-10T09:13:21;98038.75;;;16.64;50.62
70921;BME280;58572;48.110;19.838;2023-05-10T09:15:48;98036.28;;;16.93;53.51
70921;BME280;58572;48.110;19.838;2023-05-10T09:18:16;98030.78;;;16.53;52.28
70921;BME280;58572;48.110;19.838;2023-05-10T09:20:42;98034.91;;;15.94;51.63
70921;BME280;58572;48.110;19.838;2023-05-10T09:23:10;98031.31;;;16.16;52.06
70921;BME280;58572;48.110;19.838;2023-05-10T09:25:38;98025.28;;;16.93;50.53
70921;BME280;58572;48.110;19.838;2023-05-10T09:28:08;97997.34;;;17.26;48.83
70921;BME280;58572;48.110;19.838;2023-05-10T09:30:35;97985.00;;;14.94;52.13
70921;BME280;58572;48.110;19.838;2023-05-10T09:33:02;98034.88;;;13.95;54.02
70921;BME280;58572;48.110;19.838;2023-05-10T09:35:31;98027.41;;;15.77;55.92
70921;BME280;58572;48.110;19.838;2023-05-10T09:38:02;97959.75;;;16.43;54.49
70921;BME280;58572;48.110;19.838;2023-05-10T09:40:30;98030.09;;;15.32;55.28
70921;BME280;58572;48.110;19.838;2023-05-10T09:42:58;98030.41;;;16.29;51.89
70921;BME280;58572;48.110;19.838;2023-05-10T09:45:28;98028.25;;;15.86;50.99
70921;BME280;58572;48.110;19.838;2023-05-10T09:47:56;98025.38;;;16.22;51.43
70921;BME280;58572;48.110;19.838;2023-05-10T09:50:24;98016.56;;;16.03;53.61
70921;BME280;58572;48.110;19.838;2023-05-10T09:52:53;98013.03;;;16.03;51.68
70921;BME280;58572;48.110;19.838;2023-05-10T09:55:23;98026.78;;;15.80;54.57
70921;BME280;58572;48.110;19.838;2023-05-10T09:57:59;98006.69;;;17.85;47.96
70921;BME280;58572;48.110;19.838;2023-05-10T10:00:33;98011.19;;;16.29;50.04
70921;BME280;58572;48.110;19.838;2023-05-10T10:03:01;98003.44;;;15.47;52.74
70921;BME280;58572;48.110;19.838;2023-05-10T10:05:30;98002.00;;;15.63;53.74
70921;BME280;58572;48.110;19.838;2023-05-10T10:07:58;97992.44;;;15.83;52.04
70921;BME280;58572;48.110;19.838;2023-05-10T10:10:25;97994.59;;;16.91;48.58
70921;BME280;58572;48.110;19.838;2023-05-10T10:12:53;97982.22;;;18.30;46.36
70921;BME280;58572;48.110;19.838;2023-05-10T10:15:21;97984.69;;;18.52;46.46
70921;BME280;58572;48.110;19.838;2023-05-10T10:17:51;97977.47;;;20.18;46.13
70921;BME280;58572;48.110;19.838;2023-05-10T10:20:19;97885.97;;;17.28;46.56
70921;BME280;58572;48.110;19.838;2023-05-10T10:22:47;97969.19;;;20.18;43.08
70921;BME280;58572;48.110;19.838;2023-05-10T10:25:16;97973.28;;;19.34;43.37
70921;BME280;58572;48.110;19.838;2023-05-10T10:27:48;97967.44;;;20.01;43.42
70921;BME280;58572;48.110;19.838;2023-05-10T10:30:27;97978.06;;;19.25;43.67
70921;BME280;58572;48.110;19.838;2023-05-10T10:33:13;97994.28;;;17.27;44.54
70921;BME280;58572;48.110;19.838;2023-05-10T10:35:45;97959.41;;;15.88;49.65
70921;BME280;58572;48.110;19.838;2023-05-10T10:38:13;97987.97;;;17.09;48.87
70921;BME280;58572;48.110;19.838;2023-05-10T10:40:41;97979.09;;;17.04;47.74
70921;BME280;58572;48.110;19.838;2023-05-10T10:43:26;97963.56;;;18.74;44.98
70921;BME280;58572;48.110;19.838;2023-05-10T10:46:12;97949.16;;;20.21;42.65
70921;BME280;58572;48.110;19.838;2023-05-10T10:48:43;97949.06;;;21.47;41.39
70921;BME280;58572;48.110;19.838;2023-05-10T10:51:14;97955.19;;;19.45;43.97
70921;BME280;58572;48.110;19.838;2023-05-10T10:53:41;97946.59;;;19.80;41.09
70921;BME280;58572;48.110;19.838;2023-05-10T10:56:11;97954.47;;;18.44;39.60
70921;BME280;58572;48.110;19.838;2023-05-10T10:58:41;97866.59;;;19.80;41.44
70921;BME280;58572;48.110;19.838;2023-05-10T11:01:12;97949.59;;;18.79;41.00
70921;BME280;58572;48.110;19.838;2023-05-10T11:06:44;97931.41;;;20.83;37.81
70921;BME280;58572;48.110;19.838;2023-05-10T11:09:12;97928.19;;;21.49;39.29
70921;BME280;58572;48.110;19.838;2023-05-10T11:11:51;97916.00;;;23.34;37.81
70921;BME280;58572;48.110;19.838;2023-05-10T11:14:21;97919.06;;;22.75;38.16
70921;BME280;58572;48.110;19.838;2023-05-10T11:16:49;97944.22;;;20.27;39.84
70921;BME280;58572;48.110;19.838;2023-05-10T11:19:18;97934.66;;;20.36;40.77
70921;BME280;58572;48.110;19.838;2023-05-10T11:21:47;97929.44;;;22.93;37.18
70921;BME280;58572;48.110;19.838;2023-05-10T11:24:15;97932.03;;;21.88;39.39
70921;BME280;58572;48.110;19.838;2023-05-10T11:26:43;97889.94;;;22.65;38.85
70921;BME280;58572;48.110;19.838;2023-05-10T11:29:10;97933.97;;;21.44;38.79
70921;BME280;58572;48.110;19.838;2023-05-10T11:31:42;97923.44;;;22.91;39.89
70921;BME280;58572;48.110;19.838;2023-05-10T11:34:11;97944.44;;;20.70;39.86
70921;BME280;58572;48.110;19.838;2023-05-10T11:36:41;97932.25;;;21.83;38.45
70921;BME280;58572;48.110;19.838;2023-05-10T11:39:08;97946.13;;;20.99;39.77
70921;BME280;58572;48.110;19.838;2023-05-10T11:41:37;97936.66;;;21.00;40.22
70921;BME280;58572;48.110;19.838;2023-05-10T11:44:04;97928.53;;;20.92;40.84
70921;BME280;58572;48.110;19.838;2023-05-10T11:46:31;97940.19;;;20.00;42.57
70921;BME280;58572;48.110;19.838;2023-05-10T11:49:00;97942.44;;;19.20;43.23
70921;BME280;58572;48.110;19.838;2023-05-10T11:51:33;97938.38;;;19.38;43.80
70921;BME280;58572;48.110;19.838;2023-05-10T11:54:05;97933.22;;;19.69;43.31
70921;BME280;58572;48.110;19.838;2023-05-10T11:56:33;97929.38;;;21.08;41.52
70921;BME280;58572;48.110;19.838;2023-05-10T11:59:00;97930.63;;;20.34;42.53
70921;BME280;58572;48.110;19.838;2023-05-10T12:01:28;97934.56;;;21.65;40.48
70921;BME280;58572;48.110;19.838;2023-05-10T12:03:57;97913.31;;;21.70;40.78
70921;BME280;58572;48.110;19.838;2023-05-10T12:06:27;97930.53;;;21.63;39.84
70921;BME280;58572;48.110;19.838;2023-05-10T12:08:54;97912.81;;;19.95;42.27
70921;BME280;58572;48.110;19.838;2023-05-10T12:11:25;97866.81;;;19.41;43.24
70921;BME280;58572;48.110;19.838;2023-05-10T12:13:53;97895.19;;;19.42;44.19
70921;BME280;58572;48.110;19.838;2023-05-10T12:16:22;97921.53;;;19.52;44.27
70921;BME280;58572;48.110;19.838;2023-05-10T12:18:50;97919.13;;;21.64;42.52
70921;BME280;58572;48.110;19.838;2023-05-10T12:21:19;97919.16;;;22.78;39.50
70921;BME280;58572;48.110;19.838;2023-05-10T12:23:48;97914.25;;;23.26;37.92
70921;BME280;58572;48.110;19.838;2023-05-10T12:26:15;97909.66;;;22.79;38.83
70921;BME280;58572;48.110;19.838;2023-05-10T12:28:44;97909.13;;;22.54;39.20
70921;BME280;58572;48.110;19.838;2023-05-10T12:31:12;97908.28;;;23.05;38.93
70921;BME280;58572;48.110;19.838;2023-05-10T12:33:41;97912.84;;;21.52;40.44
70921;BME280;58572;48.110;19.838;2023-05-10T12:36:09;97915.16;;;21.22;41.33
70921;BME280;58572;48.110;19.838;2023-05-10T12:38:37;97911.19;;;20.18;43.42
70921;BME280;58572;48.110;19.838;2023-05-10T12:41:06;97894.19;;;20.04;43.11
70921;BME280;58572;48.110;19.838;2023-05-10T12:43:35;97914.47;;;19.75;43.47
70921;BME280;58572;48.110;19.838;2023-05-10T12:46:08;97921.38;;;19.36;44.71
70921;BME280;58572;48.110;19.838;2023-05-10T12:48:35;97908.63;;;19.76;43.04
70921;BME280;58572;48.110;19.838;2023-05-10T12:51:02;97903.53;;;19.54;44.60
70921;BME280;58572;48.110;19.838;2023-05-10T12:53:30;97903.59;;;19.91;44.06
70921;BME280;58572;48.110;19.838;2023-05-10T12:55:57;97903.31;;;19.59;44.52
70921;BME280;58572;48.110;19.838;2023-05-10T12:58:24;97907.75;;;19.97;44.00
70921;BME280;58572;48.110;19.838;2023-05-10T13:00:52;97899.44;;;19.39;45.24
70921;BME280;58572;48.110;19.838;2023-05-10T13:03:20;97897.00;;;19.26;44.64
70921;BME280;58572;48.110;19.838;2023-05-10T13:05:48;97897.16;;;19.41;44.95
70921;BME280;58572;48.110;19.838;2023-05-10T13:08:15;97899.34;;;19.48;44.57
70921;BME280;58572;48.110;19.838;2023-05-10T13:10:42;97888.88;;;19.87;44.59